N152FJ KGYY-KARR
Flight info
| Callsign | N152FJ |
|---|---|
| Flight time | 0h 15m |
| Altitude | 6000 |
| Route | DCT JOT DCT |
| Aircraft | FA50/M-SBDE3FGHIM1RWXY/HB1 |
Departure
| Time | 2026-04-18 21:48 |
|---|---|
| Airport | Gary/Chicago International Airport (KGYY) |
Arrival
| Time | 2026-04-18 22:03 |
|---|---|
| Airport | Aurora Municipal Airport (KARR) |
| Time | Latitude | Longitude | Altitude | Speed | Heading |
|---|---|---|---|---|---|
| 2026-04-18 21:33 | 41.61648 | -87.40668 | 593 ft | 0 kts | 129° |
| 2026-04-18 21:44 | 41.61646 | -87.40664 | 593 ft | 4 kts | 125° |
| 2026-04-18 21:45 | 41.61604 | -87.40634 | 593 ft | 8 kts | 180° |
| 2026-04-18 21:45 | 41.61553 | -87.40583 | 592 ft | 11 kts | 124° |
| 2026-04-18 21:45 | 41.61508 | -87.40493 | 593 ft | 12 kts | 124° |
| 2026-04-18 21:45 | 41.61454 | -87.40404 | 593 ft | 12 kts | 165° |
| 2026-04-18 21:46 | 41.61376 | -87.40421 | 593 ft | 12 kts | 134° |
| 2026-04-18 21:46 | 41.61323 | -87.40319 | 595 ft | 16 kts | 124° |
| 2026-04-18 21:46 | 41.61238 | -87.40153 | 597 ft | 26 kts | 123° |
| 2026-04-18 21:46 | 41.61153 | -87.40007 | 598 ft | 14 kts | 161° |
| 2026-04-18 21:47 | 41.61075 | -87.40056 | 598 ft | 13 kts | 242° |
| 2026-04-18 21:47 | 41.61093 | -87.40126 | 596 ft | 10 kts | 302° |
| 2026-04-18 21:47 | 41.61277 | -87.40485 | 590 ft | 85 kts | 304° |
| 2026-04-18 21:47 | 41.61699 | -87.41326 | 845 ft | 123 kts | 301° |
| 2026-04-18 21:48 | 41.62210 | -87.42419 | 1288 ft | 162 kts | 300° |
| 2026-04-18 21:48 | 41.62920 | -87.43872 | 1606 ft | 212 kts | 301° |
| 2026-04-18 21:48 | 41.63814 | -87.45656 | 2290 ft | 238 kts | 302° |
| 2026-04-18 21:48 | 41.64723 | -87.47442 | 3824 ft | 221 kts | 302° |
| 2026-04-18 21:49 | 41.65585 | -87.49124 | 5028 ft | 223 kts | 303° |
| 2026-04-18 21:49 | 41.66493 | -87.50942 | 5602 ft | 242 kts | 302° |
| 2026-04-18 21:49 | 41.67179 | -87.52937 | 6791 ft | 233 kts | 283° |
| 2026-04-18 21:49 | 41.67388 | -87.55099 | 7229 ft | 243 kts | 275° |
| 2026-04-18 21:50 | 41.67525 | -87.57310 | 6882 ft | 233 kts | 276° |
| 2026-04-18 21:50 | 41.67663 | -87.59433 | 6533 ft | 227 kts | 276° |
| 2026-04-18 21:50 | 41.67771 | -87.61543 | 6108 ft | 228 kts | 276° |
| 2026-04-18 21:50 | 41.67877 | -87.63588 | 6116 ft | 216 kts | 275° |
| 2026-04-18 21:51 | 41.67981 | -87.65656 | 6114 ft | 234 kts | 275° |
| 2026-04-18 21:51 | 41.68095 | -87.67851 | 6114 ft | 236 kts | 275° |
| 2026-04-18 21:51 | 41.68208 | -87.70044 | 6113 ft | 235 kts | 276° |
| 2026-04-18 21:51 | 41.68320 | -87.72220 | 6103 ft | 234 kts | 276° |
| 2026-04-18 21:52 | 41.68434 | -87.74389 | 6099 ft | 233 kts | 275° |
| 2026-04-18 21:52 | 41.68546 | -87.76544 | 6099 ft | 231 kts | 276° |
| 2026-04-18 21:52 | 41.68660 | -87.78688 | 6099 ft | 231 kts | 276° |
| 2026-04-18 21:52 | 41.68771 | -87.80813 | 6104 ft | 230 kts | 276° |
| 2026-04-18 21:53 | 41.68885 | -87.82949 | 6106 ft | 229 kts | 276° |
| 2026-04-18 21:53 | 41.69000 | -87.85089 | 6110 ft | 232 kts | 276° |
| 2026-04-18 21:53 | 41.69119 | -87.87256 | 6100 ft | 235 kts | 277° |
| 2026-04-18 21:53 | 41.69508 | -87.89359 | 6112 ft | 232 kts | 290° |
| 2026-04-18 21:54 | 41.70127 | -87.91340 | 6108 ft | 229 kts | 292° |
| 2026-04-18 21:54 | 41.70704 | -87.93288 | 6114 ft | 228 kts | 289° |
| 2026-04-18 21:54 | 41.71200 | -87.95294 | 6130 ft | 226 kts | 288° |
| 2026-04-18 21:54 | 41.71683 | -87.97284 | 6141 ft | 224 kts | 288° |
| 2026-04-18 21:55 | 41.72185 | -87.99282 | 6132 ft | 223 kts | 288° |
| 2026-04-18 21:55 | 41.72675 | -88.01220 | 6034 ft | 225 kts | 288° |
| 2026-04-18 21:55 | 41.73191 | -88.03271 | 5641 ft | 238 kts | 288° |
| 2026-04-18 21:55 | 41.73729 | -88.05422 | 5272 ft | 248 kts | 288° |
| 2026-04-18 21:56 | 41.74282 | -88.07630 | 4916 ft | 249 kts | 288° |
| 2026-04-18 21:56 | 41.74825 | -88.09796 | 4534 ft | 242 kts | 288° |
| 2026-04-18 21:56 | 41.75352 | -88.11900 | 4164 ft | 236 kts | 288° |
| 2026-04-18 21:56 | 41.75864 | -88.13953 | 3807 ft | 229 kts | 288° |
| 2026-04-18 21:57 | 41.76359 | -88.15937 | 3449 ft | 219 kts | 288° |
| 2026-04-18 21:57 | 41.76827 | -88.17810 | 3078 ft | 205 kts | 288° |
| 2026-04-18 21:57 | 41.77136 | -88.19617 | 2719 ft | 195 kts | 273° |
| 2026-04-18 21:57 | 41.76882 | -88.21276 | 2518 ft | 167 kts | 254° |
| 2026-04-18 21:58 | 41.76672 | -88.22652 | 2197 ft | 143 kts | 276° |
| 2026-04-18 21:58 | 41.76734 | -88.23914 | 2029 ft | 124 kts | 277° |
| 2026-04-18 21:58 | 41.76787 | -88.25062 | 2059 ft | 124 kts | 275° |
| 2026-04-18 21:58 | 41.76837 | -88.26204 | 2178 ft | 121 kts | 275° |
| 2026-04-18 21:59 | 41.76957 | -88.27397 | 2493 ft | 144 kts | 280° |
| 2026-04-18 21:59 | 41.77089 | -88.28809 | 2809 ft | 156 kts | 278° |
| 2026-04-18 21:59 | 41.77199 | -88.30190 | 3110 ft | 148 kts | 276° |
| 2026-04-18 21:59 | 41.77218 | -88.31573 | 3153 ft | 147 kts | 272° |
| 2026-04-18 22:00 | 41.77192 | -88.32893 | 3116 ft | 137 kts | 271° |
| 2026-04-18 22:00 | 41.77154 | -88.34141 | 3041 ft | 131 kts | 272° |
| 2026-04-18 22:00 | 41.77133 | -88.35320 | 2974 ft | 125 kts | 273° |
| 2026-04-18 22:00 | 41.77133 | -88.36521 | 2874 ft | 133 kts | 274° |
| 2026-04-18 22:01 | 41.77132 | -88.37754 | 2737 ft | 128 kts | 273° |
| 2026-04-18 22:01 | 41.77122 | -88.38902 | 2511 ft | 121 kts | 273° |
| 2026-04-18 22:01 | 41.77107 | -88.40043 | 2176 ft | 124 kts | 271° |
| 2026-04-18 22:01 | 41.77096 | -88.41173 | 1940 ft | 114 kts | 272° |
| 2026-04-18 22:02 | 41.77082 | -88.42145 | 1762 ft | 99 kts | 272° |
| 2026-04-18 22:02 | 41.77081 | -88.43044 | 1470 ft | 96 kts | 273° |
| 2026-04-18 22:02 | 41.77059 | -88.43947 | 1210 ft | 97 kts | 272° |
| 2026-04-18 22:02 | 41.77058 | -88.44821 | 1002 ft | 91 kts | 272° |
| 2026-04-18 22:03 | 41.77046 | -88.45627 | 819 ft | 83 kts | 275° |
| 2026-04-18 22:03 | 41.77041 | -88.46367 | 709 ft | 72 kts | 271° |
| 2026-04-18 22:03 | 41.77036 | -88.46892 | 704 ft | 37 kts | 268° |
| 2026-04-18 22:03 | 41.77027 | -88.47061 | 705 ft | 7 kts | 227° |
| 2026-04-18 22:04 | 41.76972 | -88.47070 | 701 ft | 11 kts | 179° |
| 2026-04-18 22:04 | 41.76949 | -88.47070 | 699 ft | 1 kts | 179° |
| 2026-04-18 22:04 | 41.76934 | -88.47063 | 702 ft | 5 kts | 145° |
| 2026-04-18 22:04 | 41.76915 | -88.46995 | 704 ft | 10 kts | 121° |
| 2026-04-18 22:05 | 41.76847 | -88.46971 | 704 ft | 12 kts | 178° |
| 2026-04-18 22:05 | 41.76753 | -88.46969 | 699 ft | 12 kts | 158° |
| 2026-04-18 22:05 | 41.76777 | -88.46914 | 700 ft | 6 kts | 3° |
| 2026-04-18 22:05 | 41.76783 | -88.46914 | 700 ft | 0 kts | 358° |